createdAt,value
2018-06-22T00:04:41.126Z,3.27
2018-06-22T00:07:18.392Z,2.43
2018-06-22T00:09:55.858Z,3.60
2018-06-22T00:12:32.621Z,2.87
2018-06-22T00:15:09.671Z,2.97
2018-06-22T00:17:47.453Z,2.87
2018-06-22T00:20:24.636Z,3.33
2018-06-22T00:23:02.254Z,3.40
2018-06-22T00:25:39.342Z,3.50
2018-06-22T00:28:16.419Z,3.73
2018-06-22T00:30:53.109Z,2.93
2018-06-22T00:33:29.778Z,3.27
2018-06-22T00:36:06.992Z,3.83
2018-06-22T00:38:43.697Z,3.10
2018-06-22T00:41:20.713Z,2.70
2018-06-22T00:43:56.996Z,4.03
2018-06-22T00:46:33.148Z,3.90
2018-06-22T00:49:10.292Z,3.10
2018-06-22T00:51:47.195Z,2.67
2018-06-22T00:54:24.449Z,4.10
2018-06-22T00:57:01.093Z,4.70
2018-06-22T00:59:37.800Z,2.97
2018-06-22T01:02:14.725Z,2.50
2018-06-22T01:04:52.451Z,3.13
2018-06-22T01:07:30.320Z,2.43
2018-06-22T01:10:07.612Z,1.97
2018-06-22T01:12:44.924Z,3.00
2018-06-22T01:15:22.022Z,1.90
2018-06-22T01:17:59.246Z,1.87
2018-06-22T01:20:36.846Z,2.90
2018-06-22T01:23:13.879Z,2.23
2018-06-22T01:25:51.336Z,2.07
2018-06-22T01:28:29.567Z,2.33
2018-06-22T01:31:06.440Z,2.60
2018-06-22T01:33:43.640Z,2.23
2018-06-22T01:36:20.465Z,2.10
2018-06-22T01:38:58.064Z,1.90
2018-06-22T01:41:35.440Z,2.37
2018-06-22T01:44:12.565Z,2.40
2018-06-22T01:46:49.880Z,2.10
2018-06-22T01:49:28.424Z,2.37
2018-06-22T01:52:05.717Z,3.10
2018-06-22T01:54:42.379Z,2.13
2018-06-22T01:57:19.386Z,2.57
2018-06-22T01:59:56.132Z,2.10
2018-06-22T02:02:33.114Z,2.97
2018-06-22T02:05:09.868Z,2.30
2018-06-22T02:07:47.173Z,2.97
2018-06-22T02:10:23.710Z,3.20
2018-06-22T02:13:00.663Z,3.03
2018-06-22T02:15:37.803Z,4.17
2018-06-22T02:18:14.718Z,2.70
2018-06-22T02:20:52.031Z,2.70
2018-06-22T02:23:29.099Z,3.20
2018-06-22T02:26:06.233Z,3.13
2018-06-22T02:28:43.792Z,6.80
2018-06-22T02:31:21.010Z,3.20
2018-06-22T02:33:58.350Z,3.93
2018-06-22T02:36:37.435Z,3.27
2018-06-22T02:39:14.682Z,3.70
2018-06-22T02:41:52.427Z,3.87
2018-06-22T02:44:29.402Z,4.97
2018-06-22T02:47:06.498Z,3.57
2018-06-22T02:49:43.205Z,3.60
2018-06-22T02:52:20.045Z,3.60
2018-06-22T02:54:56.932Z,3.80
2018-06-22T02:57:34.152Z,4.50
2018-06-22T03:00:11.079Z,3.50
2018-06-22T03:02:47.846Z,3.63
2018-06-22T03:05:24.417Z,3.87
2018-06-22T03:08:01.595Z,3.87
2018-06-22T03:10:38.230Z,3.13
2018-06-22T03:13:15.594Z,4.00
2018-06-22T03:15:52.032Z,5.10
2018-06-22T03:18:30.198Z,2.77
2018-06-22T03:21:07.325Z,3.63
2018-06-22T03:23:43.983Z,3.00
2018-06-22T03:26:21.139Z,3.60
2018-06-22T03:28:58.278Z,2.40
2018-06-22T03:31:34.711Z,3.67
2018-06-22T03:34:11.890Z,3.63
2018-06-22T03:36:48.720Z,2.53
2018-06-22T03:39:26.713Z,2.80
2018-06-22T03:42:03.532Z,3.10
2018-06-22T03:44:40.418Z,3.53
2018-06-22T03:47:17.640Z,3.70
2018-06-22T03:49:54.672Z,3.07
2018-06-22T03:52:32.372Z,2.83
2018-06-22T03:55:09.455Z,2.90
2018-06-22T03:57:46.298Z,3.33
2018-06-22T04:00:23.106Z,3.27
2018-06-22T04:03:00.035Z,2.47
2018-06-22T04:05:37.189Z,2.77
2018-06-22T04:08:13.990Z,3.40
2018-06-22T04:10:50.823Z,2.83
2018-06-22T04:13:27.774Z,3.00
2018-06-22T04:16:04.743Z,2.60
2018-06-22T04:18:41.543Z,2.57
2018-06-22T04:21:18.757Z,2.50
2018-06-22T04:23:55.942Z,2.97
2018-06-22T04:26:33.426Z,3.00
2018-06-22T04:29:10.651Z,3.30
2018-06-22T04:31:47.608Z,3.40
2018-06-22T04:34:24.946Z,2.90
2018-06-22T04:37:02.415Z,3.43
2018-06-22T04:39:39.216Z,2.90
2018-06-22T04:42:16.407Z,3.17
2018-06-22T04:44:52.980Z,3.20
2018-06-22T04:47:30.246Z,2.80
2018-06-22T04:50:07.813Z,2.90
2018-06-22T04:52:45.348Z,3.00
2018-06-22T04:55:22.733Z,3.30
2018-06-22T04:57:59.917Z,3.30
2018-06-22T05:00:36.517Z,3.60
2018-06-22T05:03:14.025Z,2.77
2018-06-22T05:05:50.518Z,4.97
2018-06-22T05:08:27.792Z,3.23
2018-06-22T05:11:04.621Z,4.97
2018-06-22T05:13:41.533Z,3.70
2018-06-22T05:16:18.171Z,4.10
2018-06-22T05:18:55.728Z,3.40
2018-06-22T05:21:33.105Z,3.70
2018-06-22T05:24:10.925Z,3.67
2018-06-22T05:26:47.996Z,3.60
2018-06-22T05:29:25.013Z,3.10
2018-06-22T05:32:01.660Z,3.30
2018-06-22T05:34:39.299Z,4.20
2018-06-22T05:37:16.584Z,3.53
2018-06-22T05:42:57.013Z,4.00
2018-06-22T05:45:34.364Z,4.47
2018-06-22T05:48:11.226Z,4.17
2018-06-22T05:50:49.088Z,3.50
2018-06-22T05:53:26.168Z,4.47
2018-06-22T05:56:02.642Z,3.60
2018-06-22T05:58:40.478Z,3.53
2018-06-22T06:01:17.969Z,4.20
2018-06-22T06:03:54.689Z,3.87
2018-06-22T06:06:31.576Z,4.73
2018-06-22T06:09:09.735Z,3.93
2018-06-22T06:11:46.355Z,4.37
2018-06-22T06:14:23.631Z,5.20
2018-06-22T06:17:00.271Z,4.77
2018-06-22T06:19:37.502Z,4.07
2018-06-22T06:22:14.144Z,3.93
2018-06-22T06:24:53.234Z,4.13
2018-06-22T06:27:30.211Z,6.27
2018-06-22T06:30:06.765Z,5.03
2018-06-22T06:32:43.891Z,4.47
2018-06-22T06:35:20.763Z,5.37
2018-06-22T06:37:57.647Z,5.33
2018-06-22T06:40:37.461Z,4.83
2018-06-22T06:43:14.875Z,3.80
2018-06-22T06:45:51.628Z,4.30
2018-06-22T06:48:28.719Z,4.00
2018-06-22T06:51:05.735Z,3.93
2018-06-22T06:53:42.881Z,4.60
2018-06-22T06:56:20.001Z,4.27
2018-06-22T06:58:56.862Z,5.20
2018-06-22T07:01:34.187Z,5.03
2018-06-22T07:04:10.953Z,5.67
2018-06-22T07:06:47.923Z,4.10
2018-06-22T07:09:29.732Z,4.57
2018-06-22T07:12:06.974Z,5.57
2018-06-22T07:14:45.057Z,4.90
2018-06-22T07:17:22.681Z,6.40
2018-06-22T07:20:00.358Z,5.63
2018-06-22T07:22:37.123Z,4.80
2018-06-22T07:25:13.930Z,4.70
2018-06-22T07:27:50.868Z,6.10
2018-06-22T07:30:27.839Z,4.60
2018-06-22T07:33:06.829Z,5.87
2018-06-22T07:35:43.927Z,5.83
2018-06-22T07:38:21.012Z,4.80
2018-06-22T07:40:57.826Z,4.97
2018-06-22T07:43:36.051Z,4.40
2018-06-22T07:46:12.833Z,5.77
2018-06-22T07:48:50.284Z,4.93
2018-06-22T07:51:28.098Z,4.30
2018-06-22T07:54:06.546Z,4.60
2018-06-22T07:56:44.425Z,4.40
2018-06-22T07:59:21.660Z,4.90
2018-06-22T08:01:58.466Z,4.70
2018-06-22T08:04:36.546Z,5.13
2018-06-22T08:07:13.317Z,5.93
2018-06-22T08:09:50.714Z,5.20
2018-06-22T08:12:28.439Z,4.70
2018-06-22T08:15:05.432Z,5.27
2018-06-22T08:17:42.956Z,5.10
2018-06-22T08:20:20.999Z,4.40
2018-06-22T08:22:57.908Z,6.00
2018-06-22T08:25:35.175Z,4.50
2018-06-22T08:28:11.650Z,4.33
2018-06-22T08:30:48.662Z,4.20
2018-06-22T08:33:25.582Z,3.83
2018-06-22T08:36:02.668Z,3.87
2018-06-22T08:38:39.282Z,4.50
2018-06-22T08:41:16.404Z,4.33
2018-06-22T08:43:53.551Z,3.90
2018-06-22T08:46:30.443Z,4.03
2018-06-22T08:49:07.064Z,5.20
2018-06-22T08:51:44.146Z,4.90
2018-06-22T08:54:21.594Z,4.30
2018-06-22T08:56:59.178Z,3.90
2018-06-22T08:59:36.521Z,3.90
2018-06-22T09:02:13.847Z,4.57
2018-06-22T09:04:51.286Z,4.57
2018-06-22T09:07:28.328Z,4.00
2018-06-22T09:10:06.085Z,4.70
2018-06-22T09:12:42.909Z,4.37
2018-06-22T09:15:19.983Z,5.40
2018-06-22T09:17:56.721Z,4.90
2018-06-22T09:20:34.014Z,4.77
2018-06-22T09:23:11.914Z,3.60
2018-06-22T09:25:48.909Z,3.10
2018-06-22T09:28:25.688Z,3.53
2018-06-22T09:31:03.154Z,3.07
2018-06-22T09:33:40.589Z,3.93
2018-06-22T09:36:17.926Z,3.70
2018-06-22T09:38:54.666Z,3.37
2018-06-22T09:41:31.310Z,3.33
2018-06-22T09:44:08.810Z,3.10
2018-06-22T09:46:45.446Z,3.33
2018-06-22T09:49:22.467Z,2.93
2018-06-22T09:51:59.597Z,3.27
2018-06-22T09:54:36.334Z,2.30
2018-06-22T09:57:13.392Z,2.90
2018-06-22T09:59:50.521Z,2.10
2018-06-22T10:02:27.373Z,4.13
2018-06-22T10:05:04.563Z,2.50
2018-06-22T10:07:41.303Z,2.30
2018-06-22T10:10:18.299Z,2.25
2018-06-22T10:12:55.459Z,2.15
2018-06-22T10:15:32.759Z,3.42
2018-06-22T10:18:09.770Z,1.60
2018-06-22T10:20:46.692Z,1.40
2018-06-22T10:23:32.497Z,2.85
2018-06-22T10:26:08.963Z,1.53
2018-06-22T10:28:45.890Z,1.50
2018-06-22T10:31:22.679Z,1.92
2018-06-22T10:33:59.767Z,1.35
2018-06-22T10:36:36.787Z,1.85
2018-06-22T10:39:14.083Z,1.85
2018-06-22T10:41:50.857Z,1.98
2018-06-22T10:44:27.685Z,1.73
2018-06-22T10:47:05.053Z,2.10
2018-06-22T10:49:41.835Z,2.08
2018-06-22T10:52:18.818Z,3.27
2018-06-22T10:54:56.026Z,2.00
2018-06-22T10:57:32.923Z,2.35
2018-06-22T11:00:10.136Z,1.40
2018-06-22T11:02:46.801Z,2.72
2018-06-22T11:05:24.031Z,1.72
2018-06-22T11:08:01.508Z,1.80
2018-06-22T11:10:38.186Z,1.80
2018-06-22T11:13:15.389Z,1.60
2018-06-22T11:15:52.123Z,1.67
2018-06-22T11:18:29.590Z,1.70
2018-06-22T11:21:06.113Z,1.50
2018-06-22T11:23:43.269Z,1.72
2018-06-22T11:26:20.323Z,1.55
2018-06-22T11:28:57.197Z,1.52
2018-06-22T11:31:34.228Z,3.12
2018-06-22T11:34:11.470Z,1.35
2018-06-22T11:36:48.023Z,1.70
2018-06-22T11:39:24.895Z,1.92
2018-06-22T11:42:02.229Z,1.67
2018-06-22T11:44:39.299Z,2.00
2018-06-22T11:47:17.232Z,1.77
2018-06-22T11:49:53.919Z,1.87
2018-06-22T11:52:31.472Z,1.87
2018-06-22T11:55:08.486Z,1.50
2018-06-22T11:57:45.658Z,1.75
2018-06-22T12:00:23.114Z,2.45
2018-06-22T12:03:00.504Z,1.67
2018-06-22T12:05:37.317Z,2.00
2018-06-22T12:08:14.454Z,2.05
2018-06-22T12:10:51.440Z,1.85
2018-06-22T12:13:28.203Z,1.47
2018-06-22T12:16:05.345Z,2.00
2018-06-22T12:18:42.092Z,1.67
2018-06-22T12:21:20.134Z,1.70
2018-06-22T12:23:57.163Z,2.40
2018-06-22T12:26:35.011Z,2.17
2018-06-22T12:29:12.939Z,1.82
2018-06-22T12:31:49.989Z,2.10
2018-06-22T12:34:26.340Z,1.87
2018-06-22T12:37:03.689Z,2.40
2018-06-22T12:39:40.406Z,2.40
2018-06-22T12:42:17.994Z,2.10
2018-06-22T12:44:54.752Z,2.40
2018-06-22T12:47:32.130Z,2.40
2018-06-22T12:50:08.947Z,2.02
2018-06-22T12:52:45.840Z,2.37
2018-06-22T12:55:22.731Z,1.77
2018-06-22T12:57:59.460Z,1.95
2018-06-22T13:00:37.333Z,2.25
2018-06-22T13:03:14.890Z,2.52
2018-06-22T13:05:51.888Z,2.80
2018-06-22T13:08:28.963Z,2.00
2018-06-22T13:11:06.513Z,2.20
2018-06-22T13:13:43.368Z,2.33
2018-06-22T13:16:20.299Z,3.93
2018-06-22T13:18:57.299Z,2.50
2018-06-22T13:21:51.165Z,2.53
2018-06-22T13:24:28.429Z,3.10
2018-06-22T13:27:05.191Z,2.73
2018-06-22T13:29:41.970Z,2.23
2018-06-22T13:32:18.806Z,2.27
2018-06-22T13:34:55.726Z,2.80
2018-06-22T13:37:32.999Z,2.47
2018-06-22T13:40:10.999Z,2.43
2018-06-22T13:42:48.099Z,2.37
2018-06-22T13:45:25.040Z,2.10
2018-06-22T13:48:03.255Z,2.00
2018-06-22T13:50:40.519Z,2.47
2018-06-22T13:53:18.130Z,2.40
2018-06-22T13:55:55.041Z,2.50
2018-06-22T13:58:32.283Z,2.23
2018-06-22T14:01:10.175Z,2.77
2018-06-22T14:03:52.010Z,2.37
2018-06-22T14:06:34.147Z,2.07
2018-06-22T14:09:14.364Z,2.23
2018-06-22T14:11:51.161Z,2.30
2018-06-22T14:14:28.921Z,2.60
2018-06-22T14:17:05.739Z,2.33
2018-06-22T14:19:42.915Z,2.80
2018-06-22T14:22:19.808Z,2.70
2018-06-22T14:24:56.926Z,2.17
2018-06-22T14:27:33.834Z,1.80
2018-06-22T14:30:10.807Z,2.00
2018-06-22T14:32:47.576Z,2.27
2018-06-22T14:35:24.248Z,2.80
2018-06-22T14:38:02.486Z,2.07
2018-06-22T14:40:39.036Z,2.10
2018-06-22T14:43:16.730Z,2.17
2018-06-22T14:45:54.386Z,2.10
2018-06-22T14:48:31.266Z,2.53
2018-06-22T14:51:08.224Z,1.90
2018-06-22T14:53:50.168Z,6.93
2018-06-22T14:56:31.749Z,2.10
2018-06-22T14:59:13.962Z,1.83
2018-06-22T15:01:55.984Z,2.00
2018-06-22T15:04:38.457Z,1.90
2018-06-22T15:07:20.767Z,2.63
2018-06-22T15:09:57.752Z,2.40
2018-06-22T15:12:34.243Z,2.37
2018-06-22T15:15:11.447Z,2.83
2018-06-22T15:17:52.705Z,2.27
2018-06-22T15:20:29.428Z,1.80
2018-06-22T15:23:06.299Z,2.37
2018-06-22T15:25:43.195Z,2.20
2018-06-22T15:28:20.198Z,1.97
2018-06-22T15:30:57.374Z,2.10
2018-06-22T15:33:39.172Z,2.00
2018-06-22T15:36:21.131Z,2.07
2018-06-22T15:39:03.231Z,2.20
2018-06-22T15:41:44.874Z,2.23
2018-06-22T15:44:26.780Z,3.63
2018-06-22T15:47:08.652Z,2.57
2018-06-22T15:49:50.365Z,2.60
2018-06-22T15:52:32.223Z,2.30
2018-06-22T15:55:12.678Z,2.83
2018-06-22T15:57:49.354Z,2.30
2018-06-22T16:00:26.491Z,2.70
2018-06-22T16:03:08.395Z,2.27
2018-06-22T16:05:44.996Z,2.70
2018-06-22T16:08:22.587Z,2.80
2018-06-22T16:10:59.537Z,2.90
2018-06-22T16:13:36.643Z,2.50
2018-06-22T16:16:18.302Z,2.73
2018-06-22T16:19:00.436Z,2.60
2018-06-22T16:21:43.906Z,2.67
2018-06-22T16:24:26.845Z,2.67
2018-06-22T16:27:09.470Z,2.90
2018-06-22T16:29:47.325Z,2.13
2018-06-22T16:32:25.170Z,2.70
2018-06-22T16:35:01.935Z,3.37
2018-06-22T16:37:38.730Z,2.40
2018-06-22T16:40:16.094Z,2.90
2018-06-22T16:42:53.128Z,1.93
2018-06-22T16:45:30.678Z,2.37
2018-06-22T16:48:08.216Z,2.58
2018-06-22T16:50:46.106Z,3.13
2018-06-22T16:53:24.367Z,3.00
2018-06-22T16:56:01.617Z,2.80
2018-06-22T16:58:40.442Z,2.57
2018-06-22T17:01:17.617Z,2.10
2018-06-22T17:03:54.263Z,2.87
2018-06-22T17:06:36.847Z,2.60
2018-06-22T17:09:19.281Z,3.13
2018-06-22T17:12:01.246Z,2.63
2018-06-22T17:16:49.941Z,2.20
2018-06-22T17:19:27.178Z,3.03
2018-06-22T17:22:03.886Z,4.60
2018-06-22T17:24:41.181Z,3.10
2018-06-22T17:27:18.037Z,2.83
2018-06-22T17:29:55.256Z,3.27
2018-06-22T17:32:32.063Z,2.80
2018-06-22T17:35:08.876Z,3.10
2018-06-22T17:37:47.303Z,2.87
2018-06-22T17:40:24.422Z,2.87
2018-06-22T17:43:01.461Z,3.40
2018-06-22T17:45:38.065Z,4.50
2018-06-22T17:48:15.054Z,3.37
2018-06-22T17:50:52.194Z,2.60
2018-06-22T17:53:29.532Z,2.53
2018-06-22T17:56:06.785Z,2.77
2018-06-22T17:58:46.919Z,2.90
2018-06-22T18:01:29.440Z,2.57
2018-06-22T18:04:11.677Z,2.43
2018-06-22T18:06:54.522Z,3.07
2018-06-22T18:09:36.081Z,5.43
2018-06-22T18:12:18.458Z,2.90
2018-06-22T18:14:56.773Z,3.10
2018-06-22T18:17:33.477Z,2.80
2018-06-22T18:20:11.039Z,2.90
2018-06-22T18:22:47.639Z,3.50
2018-06-22T18:25:24.652Z,3.33
2018-06-22T18:28:02.008Z,2.97
2018-06-22T18:30:39.936Z,2.60
2018-06-22T18:33:17.248Z,3.10
2018-06-22T18:35:54.006Z,3.40
2018-06-22T18:38:30.991Z,3.73
2018-06-22T18:41:08.090Z,3.10
2018-06-22T18:43:50.025Z,3.73
2018-06-22T18:46:26.967Z,3.20
2018-06-22T18:49:03.759Z,3.10
2018-06-22T18:51:42.519Z,3.00
2018-06-22T18:54:24.568Z,3.83
2018-06-22T18:57:07.546Z,3.10
2018-06-22T18:59:50.907Z,3.00
2018-06-22T19:02:33.299Z,2.83
2018-06-22T19:05:11.046Z,3.70
2018-06-22T19:07:48.254Z,3.13
2018-06-22T19:10:25.222Z,3.27
2018-06-22T19:13:02.095Z,3.50
2018-06-22T19:15:39.215Z,3.53
2018-06-22T19:18:15.888Z,3.80
2018-06-22T19:20:52.808Z,3.10
2018-06-22T19:23:29.864Z,3.83
2018-06-22T19:26:08.151Z,3.40
2018-06-22T19:28:44.949Z,3.57
2018-06-22T19:31:22.168Z,3.87
2018-06-22T19:34:00.167Z,3.50
2018-06-22T19:36:37.684Z,4.00
2018-06-22T19:39:14.641Z,5.87
2018-06-22T19:41:52.046Z,3.35
2018-06-22T19:44:33.509Z,3.27
2018-06-22T19:47:15.642Z,4.00
2018-06-22T19:49:58.457Z,4.20
2018-06-22T19:52:40.157Z,4.00
2018-06-22T19:55:17.922Z,3.50
2018-06-22T19:57:54.765Z,3.83
2018-06-22T20:00:31.484Z,4.30
2018-06-22T20:03:10.500Z,4.00
2018-06-22T20:05:47.289Z,4.43
2018-06-22T20:08:24.176Z,6.80
2018-06-22T20:11:01.422Z,4.70
2018-06-22T20:13:38.994Z,4.00
2018-06-22T20:16:16.615Z,4.23
2018-06-22T20:18:53.736Z,4.10
2018-06-22T20:21:30.848Z,4.57
2018-06-22T20:24:09.072Z,3.70
2018-06-22T20:26:45.782Z,4.97
2018-06-22T20:29:24.071Z,4.23
2018-06-22T20:32:01.019Z,4.63
2018-06-22T20:36:50.226Z,4.13
2018-06-22T20:39:34.608Z,4.10
2018-06-22T20:42:16.090Z,4.37
2018-06-22T20:44:58.949Z,4.20
2018-06-22T20:47:41.582Z,3.93
2018-06-22T20:50:23.833Z,4.57
2018-06-22T20:53:00.943Z,4.77
2018-06-22T20:55:38.915Z,3.83
2018-06-22T20:58:15.760Z,4.40
2018-06-22T21:00:52.975Z,4.90
2018-06-22T21:03:31.558Z,4.37
2018-06-22T21:06:09.409Z,5.40
2018-06-22T21:08:48.018Z,5.20
2018-06-22T21:11:24.418Z,4.80
2018-06-22T21:14:01.682Z,4.67
2018-06-22T21:16:39.214Z,4.60
2018-06-22T21:19:16.580Z,4.60
2018-06-22T21:22:03.238Z,3.90
2018-06-22T21:24:40.714Z,4.50
2018-06-22T21:27:23.018Z,4.80
2018-06-22T21:32:10.418Z,4.77
2018-06-22T21:34:52.644Z,4.30
2018-06-22T21:37:34.556Z,4.90
2018-06-22T21:40:11.406Z,5.50
2018-06-22T21:42:47.486Z,4.63
2018-06-22T21:45:24.490Z,5.30
2018-06-22T21:48:02.066Z,4.10
2018-06-22T21:50:41.163Z,4.30
2018-06-22T21:53:18.546Z,5.10
2018-06-22T21:55:55.869Z,5.00
2018-06-22T21:58:33.930Z,4.73
2018-06-22T22:01:11.087Z,5.67
2018-06-22T22:03:49.517Z,3.77
2018-06-22T22:06:27.177Z,3.57
2018-06-22T22:09:05.005Z,3.60
2018-06-22T22:11:47.800Z,4.37
2018-06-22T22:14:26.219Z,4.37
2018-06-22T22:17:03.673Z,3.73
2018-06-22T22:19:41.190Z,4.30
2018-06-22T22:22:17.880Z,4.30
2018-06-22T22:24:55.691Z,3.90
2018-06-22T22:27:32.710Z,3.97
2018-06-22T22:30:09.862Z,4.03
2018-06-22T22:32:46.702Z,4.77
2018-06-22T22:35:24.199Z,6.13
2018-06-22T22:38:01.176Z,4.43
2018-06-22T22:40:38.668Z,6.33
2018-06-22T22:43:16.174Z,4.73
2018-06-22T22:45:52.762Z,4.37
2018-06-22T22:48:29.733Z,4.07
2018-06-22T22:51:07.086Z,4.37
2018-06-22T22:53:48.019Z,4.17
2018-06-22T22:56:24.977Z,4.80
2018-06-22T22:59:02.058Z,3.67
2018-06-22T23:01:39.445Z,5.20
2018-06-22T23:04:16.268Z,4.70
2018-06-22T23:06:53.084Z,3.60
2018-06-22T23:09:29.914Z,4.23
2018-06-22T23:12:07.317Z,4.80
2018-06-22T23:14:45.326Z,5.57
2018-06-22T23:17:21.934Z,5.20
2018-06-22T23:19:59.143Z,5.80
2018-06-22T23:22:46.551Z,6.00
2018-06-22T23:25:24.842Z,7.00
2018-06-22T23:28:01.493Z,6.70
2018-06-22T23:30:38.636Z,6.33
2018-06-22T23:33:16.670Z,6.60
2018-06-22T23:35:58.024Z,5.80
2018-06-22T23:38:35.240Z,6.60
2018-06-22T23:41:11.781Z,6.60
2018-06-22T23:43:49.721Z,6.23
2018-06-22T23:46:26.501Z,7.47
2018-06-22T23:49:03.651Z,6.23
2018-06-22T23:51:41.199Z,7.80
2018-06-22T23:54:18.187Z,6.30
2018-06-22T23:56:54.953Z,6.43
2018-06-22T23:59:32.191Z,6.87
